Terminal Aerodrome Forecast
Issued by NWS

Home | Current Version | Previous Version | Text Only | Print | Product List | Glossary On
Versions: 1 2 3 4 5 6 7 8 9 10 11 12 13 14 15 16
000
FTUS42 KTBW 222300
TAFPGD
TAF
KPGD 222339Z 2300/2324 09010KT P6SM SCT015 OVC045
     FM230400 10010KT P6SM SCT010 OVC030
     FM230600 11010KT P6SM SCT010 OVC020
     FM231500 15017KT P6SM SCT015 BKN030
     FM231800 19013G23KT P6SM VCTS SCT025CB BKN045=

USA.gov is the U.S. government's official web portal to all federal, state and local government web resources and services.